createdAt,value
2022-11-21T00:01:31.072Z,14.00
2022-11-21T00:04:32.474Z,22.00
2022-11-21T00:07:34.275Z,19.90
2022-11-21T00:10:37.424Z,18.10
2022-11-21T00:13:39.243Z,14.30
2022-11-21T00:16:40.639Z,12.90
2022-11-21T00:19:42.050Z,10.90
2022-11-21T00:22:43.880Z,16.40
2022-11-21T00:25:45.256Z,14.50
2022-11-21T00:28:47.135Z,16.20
2022-11-21T00:31:48.620Z,13.60
2022-11-21T00:34:50.048Z,13.10
2022-11-21T00:37:51.494Z,13.00
2022-11-21T00:40:52.849Z,14.40
2022-11-21T00:43:54.270Z,12.80
2022-11-21T00:46:55.685Z,17.00
2022-11-21T00:49:57.292Z,13.00
2022-11-21T00:52:58.762Z,15.80
2022-11-21T00:56:00.229Z,13.10
2022-11-21T00:59:01.670Z,13.30
2022-11-21T01:02:05.621Z,15.40
2022-11-21T01:05:07.609Z,11.90
2022-11-21T01:08:09.109Z,12.40
2022-11-21T01:11:13.933Z,13.80
2022-11-21T01:14:15.325Z,14.50
2022-11-21T01:17:16.791Z,16.60
2022-11-21T01:20:18.294Z,16.20
2022-11-21T01:23:19.715Z,13.20
2022-11-21T01:26:23.862Z,13.60
2022-11-21T01:29:26.588Z,14.30
2022-11-21T01:32:28.000Z,13.20
2022-11-21T01:35:29.520Z,13.00
2022-11-21T01:38:32.995Z,12.50
2022-11-21T01:41:40.474Z,16.40
2022-11-21T01:44:50.756Z,13.30
2022-11-21T01:47:52.170Z,13.20
2022-11-21T01:50:56.020Z,13.20
2022-11-21T01:54:19.440Z,11.80
2022-11-21T01:57:20.933Z,13.90
2022-11-21T02:00:26.208Z,13.50
2022-11-21T02:03:33.067Z,12.30
2022-11-21T02:06:37.006Z,12.40
2022-11-21T02:09:42.110Z,19.30
2022-11-21T02:12:50.460Z,17.20
2022-11-21T02:15:52.496Z,20.00
2022-11-21T02:18:54.672Z,16.00
2022-11-21T02:22:06.868Z,20.70
2022-11-21T02:25:12.739Z,18.00
2022-11-21T02:28:16.132Z,16.80
2022-11-21T02:31:17.638Z,20.20
2022-11-21T02:34:19.239Z,25.90
2022-11-21T02:37:22.340Z,20.70
2022-11-21T02:40:36.168Z,24.70
2022-11-21T02:44:20.063Z,22.00
2022-11-21T02:47:22.759Z,24.20
2022-11-21T02:50:33.307Z,21.50
2022-11-21T02:53:34.837Z,21.50
2022-11-21T02:56:36.325Z,23.00
2022-11-21T02:59:38.150Z,22.00
2022-11-21T03:02:39.756Z,25.10
2022-11-21T03:05:41.282Z,21.50
2022-11-21T03:08:42.704Z,22.70
2022-11-21T03:11:44.028Z,27.90
2022-11-21T03:14:47.220Z,18.30
2022-11-21T03:17:49.373Z,19.20
2022-11-21T03:20:50.796Z,26.30
2022-11-21T03:23:52.236Z,22.40
2022-11-21T03:26:53.642Z,28.00
2022-11-21T03:29:55.288Z,25.50
2022-11-21T03:32:57.594Z,19.80
2022-11-21T03:35:59.066Z,25.60
2022-11-21T03:39:00.496Z,25.10
2022-11-21T03:42:01.944Z,17.80
2022-11-21T03:45:03.887Z,24.50
2022-11-21T03:48:05.768Z,21.60
2022-11-21T03:51:07.203Z,23.60
2022-11-21T03:54:09.600Z,19.60
2022-11-21T03:57:11.053Z,17.80
2022-11-21T04:00:13.536Z,18.30
2022-11-21T04:03:15.149Z,17.50
2022-11-21T04:06:19.480Z,21.20
2022-11-21T04:09:20.955Z,24.10
2022-11-21T04:12:22.346Z,17.40
2022-11-21T04:15:23.806Z,18.00
2022-11-21T04:18:25.318Z,15.70
2022-11-21T04:21:26.812Z,18.90
2022-11-21T04:24:28.449Z,12.90
2022-11-21T04:27:30.133Z,14.60
2022-11-21T04:30:33.857Z,15.90
2022-11-21T04:33:35.391Z,19.40
2022-11-21T04:36:36.984Z,17.70
2022-11-21T04:39:38.397Z,16.10
2022-11-21T04:42:44.381Z,15.60
2022-11-21T04:45:45.817Z,11.90
2022-11-21T04:48:47.268Z,15.20
2022-11-21T04:51:48.678Z,15.90
2022-11-21T04:54:50.046Z,17.20
2022-11-21T04:57:51.532Z,15.10
2022-11-21T05:00:53.062Z,16.20
2022-11-21T05:03:54.542Z,13.70
2022-11-21T05:06:57.847Z,18.60
2022-11-21T05:10:00.960Z,15.70
2022-11-21T05:13:20.563Z,18.80
2022-11-21T05:16:22.040Z,13.70
2022-11-21T05:19:23.523Z,12.00
2022-11-21T05:22:25.129Z,12.00
2022-11-21T05:25:26.683Z,13.60
2022-11-21T05:28:28.121Z,15.30
2022-11-21T05:31:29.727Z,15.70
2022-11-21T05:34:31.275Z,19.30
2022-11-21T05:37:32.781Z,14.70
2022-11-21T05:40:34.247Z,16.40
2022-11-21T05:43:48.369Z,13.30
2022-11-21T05:46:49.777Z,16.70
2022-11-21T05:49:51.279Z,21.50
2022-11-21T05:52:52.848Z,13.40
2022-11-21T05:55:54.264Z,11.70
2022-11-21T05:58:56.763Z,12.20
2022-11-21T06:02:17.173Z,13.40
2022-11-21T06:05:20.588Z,14.70
2022-11-21T06:08:22.689Z,13.10
2022-11-21T06:11:24.206Z,14.50
2022-11-21T06:14:25.878Z,12.50
2022-11-21T06:17:27.700Z,15.90
2022-11-21T06:20:29.358Z,13.70
2022-11-21T06:23:30.919Z,18.30
2022-11-21T06:26:32.357Z,20.40
2022-11-21T06:29:34.020Z,15.00
2022-11-21T06:32:37.028Z,19.00
2022-11-21T06:35:38.530Z,18.40
2022-11-21T06:38:40.199Z,19.70
2022-11-21T06:41:41.675Z,19.60
2022-11-21T06:44:48.223Z,21.80
2022-11-21T06:47:49.672Z,15.80
2022-11-21T06:50:51.363Z,21.50
2022-11-21T06:53:58.660Z,20.00
2022-11-21T06:57:00.111Z,28.90
2022-11-21T07:00:01.888Z,25.90
2022-11-21T07:03:03.725Z,22.50
2022-11-21T07:06:06.435Z,20.90
2022-11-21T07:12:48.236Z,19.70
2022-11-21T07:15:53.569Z,16.90
2022-11-21T07:18:54.949Z,26.20
2022-11-21T07:21:56.344Z,23.30
2022-11-21T07:24:57.735Z,23.10
2022-11-21T07:27:59.957Z,23.30
2022-11-21T07:31:05.826Z,22.70
2022-11-21T07:34:10.188Z,22.10
2022-11-21T07:37:11.667Z,26.00
2022-11-21T07:40:13.356Z,21.20
2022-11-21T07:43:14.810Z,27.50
2022-11-21T07:46:16.264Z,23.20
2022-11-21T07:49:17.751Z,24.10
2022-11-21T07:52:19.257Z,112.10
2022-11-21T07:55:20.643Z,35.90
2022-11-21T07:58:22.290Z,30.90
2022-11-21T08:01:23.723Z,62.60
2022-11-21T08:04:25.835Z,37.60
2022-11-21T08:07:27.288Z,37.20
2022-11-21T08:10:29.166Z,27.70
2022-11-21T08:13:32.962Z,27.50
2022-11-21T08:16:35.367Z,28.60
2022-11-21T08:19:36.818Z,30.30
2022-11-21T08:22:50.564Z,30.90
2022-11-21T08:25:51.998Z,34.10
2022-11-21T08:28:59.633Z,27.60
2022-11-21T08:32:01.704Z,28.70
2022-11-21T08:35:04.066Z,35.70
2022-11-21T08:38:05.997Z,30.00
2022-11-21T08:41:26.124Z,31.80
2022-11-21T08:44:30.727Z,33.20
2022-11-21T08:47:33.628Z,31.50
2022-11-21T08:50:35.173Z,29.70
2022-11-21T08:53:36.610Z,28.70
2022-11-21T08:56:38.048Z,34.30
2022-11-21T08:59:39.493Z,34.80
2022-11-21T09:02:41.023Z,36.80
2022-11-21T09:05:42.456Z,35.90
2022-11-21T09:08:43.855Z,35.00
2022-11-21T09:11:46.000Z,28.70
2022-11-21T09:15:06.294Z,34.80
2022-11-21T09:18:07.771Z,34.50
2022-11-21T09:21:14.242Z,37.90
2022-11-21T09:24:15.874Z,39.50
2022-11-21T09:27:17.382Z,41.40
2022-11-21T09:30:21.293Z,32.60
2022-11-21T09:33:22.999Z,31.50
2022-11-21T09:36:24.495Z,37.10
2022-11-21T09:39:26.197Z,34.50
2022-11-21T09:42:45.447Z,38.40
2022-11-21T09:46:16.259Z,32.70
2022-11-21T09:49:17.747Z,29.50
2022-11-21T09:52:24.694Z,30.90
2022-11-21T09:55:28.928Z,45.50
2022-11-21T09:58:53.538Z,38.10
2022-11-21T10:01:55.850Z,41.30
2022-11-21T10:05:00.296Z,42.00
2022-11-21T10:08:20.490Z,43.70
2022-11-21T10:12:15.536Z,39.90
2022-11-21T10:15:28.757Z,38.10
2022-11-21T10:18:36.164Z,39.40
2022-11-21T10:21:46.624Z,36.80
2022-11-21T10:24:58.925Z,38.70
2022-11-21T10:28:16.279Z,44.60
2022-11-21T10:31:19.310Z,51.10
2022-11-21T10:34:29.616Z,51.30
2022-11-21T10:37:36.360Z,51.30
2022-11-21T10:40:45.131Z,44.10
2022-11-21T10:47:27.292Z,35.10
2022-11-21T10:50:56.521Z,37.30
2022-11-21T10:54:27.869Z,44.10
2022-11-21T10:57:54.403Z,43.60
2022-11-21T11:00:57.904Z,50.80
2022-11-21T11:07:31.206Z,47.10
2022-11-21T11:10:36.059Z,50.20
2022-11-21T11:13:56.395Z,37.50
2022-11-21T11:16:58.218Z,32.30
2022-11-21T11:20:24.179Z,42.60
2022-11-21T11:23:27.384Z,36.80
2022-11-21T11:26:30.916Z,42.50
2022-11-21T11:29:35.105Z,38.00
2022-11-21T11:32:40.676Z,39.50
2022-11-21T11:35:43.137Z,37.40
2022-11-21T11:39:18.295Z,43.30
2022-11-21T11:42:56.924Z,40.30
2022-11-21T11:46:42.607Z,36.10
2022-11-21T11:50:12.719Z,34.90
2022-11-21T11:56:27.010Z,33.80
2022-11-21T11:59:38.692Z,38.60
2022-11-21T12:02:54.872Z,43.50
2022-11-21T12:06:09.181Z,29.90
2022-11-21T12:09:30.902Z,29.00
2022-11-21T12:12:38.925Z,30.90
2022-11-21T12:15:49.876Z,34.30
2022-11-21T12:19:09.626Z,38.30
2022-11-21T12:22:11.501Z,37.10
2022-11-21T12:25:13.784Z,33.80
2022-11-21T12:28:26.731Z,29.40
2022-11-21T12:32:00.105Z,25.70
2022-11-21T12:35:14.287Z,48.10
2022-11-21T12:38:43.443Z,31.00
2022-11-21T12:42:38.963Z,23.00
2022-11-21T12:45:55.723Z,26.90
2022-11-21T12:49:38.184Z,22.10
2022-11-21T12:53:18.183Z,24.50
2022-11-21T12:56:32.428Z,19.40
2022-11-21T12:59:54.543Z,15.90
2022-11-21T13:03:20.711Z,20.60
2022-11-21T13:06:26.425Z,21.00
2022-11-21T13:09:33.762Z,19.70
2022-11-21T13:12:51.345Z,15.90
2022-11-21T13:15:59.881Z,24.20
2022-11-21T13:19:22.680Z,22.30
2022-11-21T13:22:47.186Z,19.20
2022-11-21T13:25:56.391Z,20.80
2022-11-21T13:29:12.311Z,19.40
2022-11-21T13:32:37.022Z,20.20
2022-11-21T13:35:38.466Z,12.90
2022-11-21T13:38:53.365Z,10.50
2022-11-21T13:42:20.456Z,18.20
2022-11-21T13:45:49.940Z,16.80
2022-11-21T13:49:10.991Z,14.50
2022-11-21T13:52:26.770Z,14.20
2022-11-21T13:55:47.215Z,20.40
2022-11-21T13:59:18.550Z,18.20
2022-11-21T14:02:42.121Z,14.30
2022-11-21T14:06:02.832Z,12.00
2022-11-21T14:09:22.023Z,11.70
2022-11-21T14:12:44.537Z,11.20
2022-11-21T14:15:53.912Z,10.70
2022-11-21T14:18:55.922Z,11.80
2022-11-21T14:21:59.653Z,9.80
2022-11-21T14:25:07.340Z,11.20
2022-11-21T14:28:13.777Z,10.00
2022-11-21T14:31:15.578Z,8.10
2022-11-21T14:34:28.312Z,13.70
2022-11-21T14:37:31.911Z,10.40
2022-11-21T14:40:35.291Z,9.70
2022-11-21T14:43:37.458Z,8.40
2022-11-21T14:46:41.263Z,9.20
2022-11-21T14:49:53.296Z,10.50
2022-11-21T14:52:58.236Z,9.40
2022-11-21T14:56:01.626Z,7.00
2022-11-21T14:59:14.287Z,6.60
2022-11-21T15:02:22.172Z,6.40
2022-11-21T15:06:03.917Z,6.30
2022-11-21T15:12:25.263Z,7.40
2022-11-21T15:15:38.694Z,6.10
2022-11-21T15:18:42.101Z,4.90
2022-11-21T15:21:46.399Z,6.50
2022-11-21T15:24:48.236Z,6.20
2022-11-21T15:28:08.429Z,6.60
2022-11-21T15:31:19.684Z,5.90
2022-11-21T15:34:35.399Z,5.80
2022-11-21T15:37:48.324Z,6.40
2022-11-21T15:41:11.436Z,5.30
2022-11-21T15:44:12.807Z,5.40
2022-11-21T15:47:14.313Z,5.10
2022-11-21T15:50:16.836Z,4.00
2022-11-21T15:53:18.869Z,4.00
2022-11-21T15:57:14.039Z,4.40
2022-11-21T15:59:44.748Z,4.60
2022-11-21T16:02:47.293Z,3.30
2022-11-21T16:05:53.585Z,3.60
2022-11-21T16:08:57.845Z,4.20
2022-11-21T16:11:59.263Z,6.40
2022-11-21T16:15:00.700Z,5.00
2022-11-21T16:18:02.171Z,4.90
2022-11-21T16:21:16.532Z,4.80
2022-11-21T16:24:19.272Z,4.70
2022-11-21T16:27:21.735Z,6.20
2022-11-21T16:30:23.711Z,7.40
2022-11-21T16:37:40.806Z,7.90
2022-11-21T16:41:06.994Z,6.40
2022-11-21T16:44:14.286Z,9.50
2022-11-21T16:47:16.337Z,11.30
2022-11-21T16:50:24.501Z,8.30
2022-11-21T16:53:30.122Z,7.70
2022-11-21T16:56:32.261Z,6.90
2022-11-21T16:59:43.395Z,5.90
2022-11-21T17:02:45.132Z,6.20
2022-11-21T17:06:04.472Z,6.00
2022-11-21T17:09:06.198Z,3.90
2022-11-21T17:12:08.231Z,3.90
2022-11-21T17:15:13.094Z,4.20
2022-11-21T17:18:15.054Z,3.80
2022-11-21T17:21:17.630Z,3.50
2022-11-21T17:24:33.982Z,4.50
2022-11-21T17:27:38.075Z,3.50
2022-11-21T17:30:47.182Z,3.70
2022-11-21T17:34:05.190Z,5.80
2022-11-21T17:37:12.199Z,5.50
2022-11-21T17:40:13.855Z,4.80
2022-11-21T17:43:15.369Z,4.80
2022-11-21T17:46:18.917Z,4.40
2022-11-21T17:49:24.465Z,5.30
2022-11-21T17:52:27.103Z,5.40
2022-11-21T17:55:28.982Z,4.60
2022-11-21T17:58:31.502Z,4.80
2022-11-21T18:01:34.014Z,4.80
2022-11-21T18:04:38.371Z,7.20
2022-11-21T18:07:40.111Z,6.60
2022-11-21T18:10:43.754Z,6.90
2022-11-21T18:13:48.101Z,5.90
2022-11-21T18:16:53.836Z,5.90
2022-11-21T18:19:55.362Z,5.50
2022-11-21T18:22:56.923Z,6.60
2022-11-21T18:26:10.563Z,6.40
2022-11-21T18:32:35.310Z,5.70
2022-11-21T18:35:37.111Z,5.00
2022-11-21T18:38:48.670Z,5.00
2022-11-21T18:41:51.504Z,6.40
2022-11-21T18:44:53.325Z,5.90
2022-11-21T18:47:54.936Z,5.40
2022-11-21T18:51:11.957Z,5.00
2022-11-21T18:54:13.622Z,6.00
2022-11-21T18:57:15.205Z,6.90
2022-11-21T19:00:17.321Z,6.70
2022-11-21T19:03:20.142Z,6.40
2022-11-21T19:06:23.734Z,5.90
2022-11-21T19:09:32.339Z,5.80
2022-11-21T19:12:39.267Z,7.00
2022-11-21T19:15:44.678Z,7.00
2022-11-21T19:18:59.884Z,7.30
2022-11-21T19:22:09.173Z,7.60
2022-11-21T19:25:10.749Z,6.30
2022-11-21T19:28:12.466Z,6.10
2022-11-21T19:31:18.521Z,5.80
2022-11-21T19:34:20.764Z,6.00
2022-11-21T19:37:22.295Z,6.10
2022-11-21T19:40:46.972Z,5.70
2022-11-21T19:43:51.325Z,5.80
2022-11-21T19:46:52.865Z,7.00
2022-11-21T19:49:55.644Z,6.10
2022-11-21T19:52:57.086Z,6.40
2022-11-21T19:55:58.639Z,7.40
2022-11-21T19:59:00.123Z,6.90
2022-11-21T20:02:01.796Z,5.50
2022-11-21T20:05:03.428Z,5.50
2022-11-21T20:08:14.260Z,7.90
2022-11-21T20:11:20.257Z,6.60
2022-11-21T20:14:22.867Z,6.80
2022-11-21T20:17:24.765Z,6.70
2022-11-21T20:20:26.143Z,5.50
2022-11-21T20:23:27.846Z,5.60
2022-11-21T20:26:31.210Z,7.40
2022-11-21T20:29:32.851Z,7.40
2022-11-21T20:32:34.476Z,7.70
2022-11-21T20:35:39.298Z,10.80
2022-11-21T20:38:41.311Z,8.30
2022-11-21T20:41:43.204Z,9.60
2022-11-21T20:48:11.144Z,11.90
2022-11-21T20:54:36.858Z,12.00
2022-11-21T20:57:38.961Z,11.10
2022-11-21T21:00:40.543Z,14.70
2022-11-21T21:03:42.150Z,13.00
2022-11-21T21:06:43.755Z,19.50
2022-11-21T21:09:45.422Z,20.80
2022-11-21T21:12:48.856Z,19.00
2022-11-21T21:15:54.899Z,9.30
2022-11-21T21:19:00.156Z,14.00
2022-11-21T21:22:15.050Z,13.20
2022-11-21T21:25:17.883Z,15.80
2022-11-21T21:28:32.585Z,16.70
2022-11-21T21:31:52.097Z,13.00
2022-11-21T21:34:58.526Z,9.20
2022-11-21T21:38:03.708Z,14.30
2022-11-21T21:41:13.516Z,15.20
2022-11-21T21:44:15.733Z,11.60
2022-11-21T21:47:20.999Z,9.00
2022-11-21T21:50:27.612Z,9.00
2022-11-21T21:53:29.769Z,10.10
2022-11-21T21:56:33.200Z,15.00
2022-11-21T21:59:35.126Z,13.10
2022-11-21T22:02:42.354Z,14.00
2022-11-21T22:05:54.935Z,11.90
2022-11-21T22:08:56.801Z,13.70
2022-11-21T22:12:04.478Z,10.70
2022-11-21T22:15:10.855Z,17.10
2022-11-21T22:18:12.566Z,14.80
2022-11-21T22:21:24.096Z,11.70
2022-11-21T22:24:26.883Z,11.30
2022-11-21T22:27:32.126Z,10.30
2022-11-21T22:30:36.583Z,13.40
2022-11-21T22:33:40.425Z,16.20
2022-11-21T22:36:42.835Z,10.30
2022-11-21T22:39:46.711Z,9.40
2022-11-21T22:42:55.470Z,11.80
2022-11-21T22:46:01.795Z,10.00
2022-11-21T22:49:03.404Z,13.60
2022-11-21T22:52:04.967Z,12.90
2022-11-21T22:55:07.162Z,10.50
2022-11-21T22:58:09.440Z,12.70
2022-11-21T23:01:22.606Z,11.90
2022-11-21T23:04:24.258Z,8.90
2022-11-21T23:07:28.468Z,13.20
2022-11-21T23:10:30.161Z,12.70
2022-11-21T23:13:32.449Z,10.90
2022-11-21T23:16:34.282Z,13.20
2022-11-21T23:19:35.874Z,10.60
2022-11-21T23:22:37.550Z,9.80
2022-11-21T23:25:39.168Z,10.30
2022-11-21T23:28:40.854Z,13.80
2022-11-21T23:31:48.608Z,13.90
2022-11-21T23:34:50.419Z,14.70
2022-11-21T23:37:51.935Z,12.10
2022-11-21T23:40:53.544Z,10.60
2022-11-21T23:44:47.063Z,12.80
2022-11-21T23:47:48.591Z,13.70
2022-11-21T23:50:50.854Z,15.50
2022-11-21T23:53:52.527Z,14.50
2022-11-21T23:56:54.060Z,15.00
2022-11-21T23:59:55.831Z,16.60
